createdAt,value
2023-01-21T00:01:19.305Z,-0.55
2023-01-21T00:03:47.516Z,-0.64
2023-01-21T00:06:15.540Z,-0.54
2023-01-21T00:08:44.208Z,-0.54
2023-01-21T00:11:15.534Z,-0.54
2023-01-21T00:13:44.563Z,-0.66
2023-01-21T00:16:13.417Z,-0.72
2023-01-21T00:18:41.813Z,-0.64
2023-01-21T00:21:10.198Z,-0.69
2023-01-21T00:23:38.459Z,-0.81
2023-01-21T00:26:08.671Z,-0.74
2023-01-21T00:28:37.147Z,-0.66
2023-01-21T00:31:07.928Z,-0.62
2023-01-21T00:33:38.063Z,-0.65
2023-01-21T00:36:14.257Z,-0.72
2023-01-21T00:38:42.234Z,-0.85
2023-01-21T00:41:13.437Z,-0.88
2023-01-21T00:43:42.478Z,-0.84
2023-01-21T00:46:11.434Z,-0.84
2023-01-21T00:48:40.403Z,-0.91
2023-01-21T00:51:08.643Z,-0.88
2023-01-21T00:53:41.672Z,-0.88
2023-01-21T00:56:12.906Z,-0.85
2023-01-21T00:58:43.493Z,-0.71
2023-01-21T01:01:16.907Z,-0.68
2023-01-21T01:03:46.760Z,-0.79
2023-01-21T01:06:19.027Z,-0.72
2023-01-21T01:08:49.819Z,-0.70
2023-01-21T01:11:21.425Z,-0.84
2023-01-21T01:13:49.382Z,-0.71
2023-01-21T01:16:17.334Z,-0.66
2023-01-21T01:18:46.189Z,-0.63
2023-01-21T01:21:17.652Z,-0.65
2023-01-21T01:23:46.732Z,-0.57
2023-01-21T01:26:17.811Z,-0.46
2023-01-21T01:28:46.091Z,-0.39
2023-01-21T01:31:18.238Z,-0.39
2023-01-21T01:33:47.459Z,-0.54
2023-01-21T01:36:25.002Z,-0.60
2023-01-21T01:38:54.055Z,-0.59
2023-01-21T01:41:27.366Z,-0.57
2023-01-21T01:44:25.971Z,-0.63
2023-01-21T01:46:58.411Z,-0.53
2023-01-21T01:49:26.376Z,-0.55
2023-01-21T01:51:58.807Z,-0.42
2023-01-21T01:54:36.384Z,-0.46
2023-01-21T01:57:08.807Z,-0.39
2023-01-21T01:59:36.914Z,-0.29
2023-01-21T02:02:14.311Z,-0.18
2023-01-21T02:04:57.297Z,-0.37
2023-01-21T02:07:26.517Z,-0.40
2023-01-21T02:09:55.218Z,-0.35
2023-01-21T02:12:23.528Z,-0.33
2023-01-21T02:14:51.677Z,-0.28
2023-01-21T02:18:01.158Z,-0.30
2023-01-21T02:21:04.320Z,-0.29
2023-01-21T02:24:11.715Z,-0.25
2023-01-21T02:26:54.899Z,-0.11
2023-01-21T02:29:39.479Z,-0.03
2023-01-21T02:32:50.879Z,-0.01
2023-01-21T02:35:28.580Z,0.05
2023-01-21T02:38:26.770Z,-0.07
2023-01-21T02:41:22.894Z,0.01
2023-01-21T02:44:08.856Z,0.05
2023-01-21T02:46:44.404Z,0.03
2023-01-21T02:49:39.466Z,0.14
2023-01-21T02:52:07.483Z,0.15
2023-01-21T02:54:41.158Z,0.13
2023-01-21T02:57:14.786Z,0.19
2023-01-21T02:59:49.760Z,0.18
2023-01-21T03:02:44.037Z,0.21
2023-01-21T03:05:49.296Z,0.24
2023-01-21T03:08:33.053Z,0.30
2023-01-21T03:11:16.790Z,0.29
2023-01-21T03:14:17.112Z,0.33
2023-01-21T03:17:11.178Z,0.33
2023-01-21T03:19:55.484Z,0.29
2023-01-21T03:22:31.340Z,0.28
2023-01-21T03:25:00.701Z,0.28
2023-01-21T03:27:31.779Z,0.25
2023-01-21T03:30:05.606Z,0.28
2023-01-21T03:32:35.927Z,0.23
2023-01-21T03:35:06.649Z,0.23
2023-01-21T03:37:46.768Z,0.23
2023-01-21T03:40:32.826Z,0.28
2023-01-21T03:43:01.463Z,0.32
2023-01-21T03:45:50.345Z,0.29
2023-01-21T03:48:26.563Z,0.24
2023-01-21T03:51:03.500Z,0.25
2023-01-21T03:53:31.528Z,0.33
2023-01-21T03:56:00.106Z,0.36
2023-01-21T03:58:28.846Z,0.32
2023-01-21T04:00:57.605Z,0.23
2023-01-21T04:03:25.630Z,0.26
2023-01-21T04:05:53.745Z,0.29
2023-01-21T04:08:21.766Z,0.37
2023-01-21T04:10:49.658Z,0.28
2023-01-21T04:13:17.583Z,0.30
2023-01-21T04:15:45.456Z,0.32
2023-01-21T04:18:13.455Z,0.37
2023-01-21T04:20:41.366Z,0.35
2023-01-21T04:23:09.349Z,0.39
2023-01-21T04:25:37.201Z,0.46
2023-01-21T04:28:05.340Z,0.40
2023-01-21T04:30:33.342Z,0.35
2023-01-21T04:33:01.275Z,0.32
2023-01-21T04:35:29.276Z,0.38
2023-01-21T04:37:57.374Z,0.32
2023-01-21T04:40:25.246Z,0.34
2023-01-21T04:42:53.185Z,0.35
2023-01-21T04:45:21.418Z,0.36
2023-01-21T04:47:49.331Z,0.35
2023-01-21T04:50:18.875Z,0.32
2023-01-21T04:52:47.100Z,0.30
2023-01-21T04:55:15.011Z,0.33
2023-01-21T04:57:43.012Z,0.32
2023-01-21T05:00:11.636Z,0.39
2023-01-21T05:02:39.642Z,0.39
2023-01-21T05:05:08.141Z,0.35
2023-01-21T05:07:36.792Z,0.30
2023-01-21T05:10:05.291Z,0.31
2023-01-21T05:12:33.271Z,0.32
2023-01-21T05:15:01.132Z,0.28
2023-01-21T05:17:29.143Z,0.29
2023-01-21T05:19:57.478Z,0.31
2023-01-21T05:22:25.443Z,0.35
2023-01-21T05:24:53.373Z,0.40
2023-01-21T05:27:21.711Z,0.34
2023-01-21T05:29:49.679Z,0.30
2023-01-21T05:32:17.665Z,0.36
2023-01-21T05:34:45.558Z,0.39
2023-01-21T05:37:13.996Z,0.41
2023-01-21T05:39:41.935Z,0.45
2023-01-21T05:42:09.785Z,0.49
2023-01-21T05:44:37.668Z,0.54
2023-01-21T05:47:07.583Z,0.52
2023-01-21T05:49:35.986Z,0.58
2023-01-21T05:52:04.134Z,0.58
2023-01-21T05:54:32.011Z,0.60
2023-01-21T05:56:59.876Z,0.64
2023-01-21T05:59:28.463Z,0.58
2023-01-21T06:01:56.361Z,0.60
2023-01-21T06:04:28.410Z,0.61
2023-01-21T06:06:57.796Z,0.63
2023-01-21T06:09:25.743Z,0.64
2023-01-21T06:11:53.730Z,0.68
2023-01-21T06:14:21.574Z,0.67
2023-01-21T06:16:49.496Z,0.68
2023-01-21T06:19:18.364Z,0.75
2023-01-21T06:21:46.404Z,0.75
2023-01-21T06:24:14.955Z,0.78
2023-01-21T06:26:42.846Z,0.84
2023-01-21T06:29:10.733Z,0.79
2023-01-21T06:31:39.426Z,0.81
2023-01-21T06:34:07.512Z,0.80
2023-01-21T06:36:36.307Z,0.86
2023-01-21T06:39:04.215Z,0.89
2023-01-21T06:41:32.183Z,0.85
2023-01-21T06:44:00.012Z,0.86
2023-01-21T06:46:27.952Z,0.94
2023-01-21T06:48:55.922Z,0.95
2023-01-21T06:51:23.901Z,0.92
2023-01-21T06:53:52.035Z,0.95
2023-01-21T06:56:21.287Z,1.04
2023-01-21T06:58:49.276Z,1.07
2023-01-21T07:01:17.355Z,1.13
2023-01-21T07:03:45.359Z,1.11
2023-01-21T07:06:13.370Z,1.15
2023-01-21T07:08:41.248Z,1.16
2023-01-21T07:11:09.231Z,1.17
2023-01-21T07:13:37.149Z,1.24
2023-01-21T07:16:06.991Z,1.24
2023-01-21T07:18:35.375Z,1.27
2023-01-21T07:21:03.624Z,1.23
2023-01-21T07:23:31.576Z,1.29
2023-01-21T07:25:59.767Z,1.34
2023-01-21T07:28:27.796Z,1.31
2023-01-21T07:30:59.802Z,1.34
2023-01-21T07:33:28.893Z,1.36
2023-01-21T07:35:56.875Z,1.42
2023-01-21T07:38:24.938Z,1.38
2023-01-21T07:40:52.797Z,1.36
2023-01-21T07:43:20.787Z,1.40
2023-01-21T07:45:49.405Z,1.43
2023-01-21T07:48:17.388Z,1.51
2023-01-21T07:50:45.346Z,1.50
2023-01-21T07:53:13.659Z,1.56
2023-01-21T07:55:41.818Z,1.56
2023-01-21T07:58:10.697Z,1.49
2023-01-21T08:00:38.629Z,1.50
2023-01-21T08:03:06.626Z,1.50
2023-01-21T08:05:34.559Z,1.47
2023-01-21T08:08:02.436Z,1.50
2023-01-21T08:10:30.389Z,1.56
2023-01-21T08:12:58.292Z,1.53
2023-01-21T08:15:26.233Z,1.51
2023-01-21T08:17:54.276Z,1.54
2023-01-21T08:20:22.360Z,1.44
2023-01-21T08:22:50.589Z,1.63
2023-01-21T08:25:19.034Z,1.56
2023-01-21T08:27:47.079Z,1.53
2023-01-21T08:30:15.784Z,1.57
2023-01-21T08:32:43.962Z,1.57
2023-01-21T08:35:12.023Z,1.55
2023-01-21T08:37:39.961Z,1.50
2023-01-21T08:40:11.412Z,1.44
2023-01-21T08:42:39.310Z,1.52
2023-01-21T08:45:08.264Z,1.56
2023-01-21T08:47:36.190Z,1.50
2023-01-21T08:50:04.562Z,1.45
2023-01-21T08:52:32.444Z,1.41
2023-01-21T08:55:00.533Z,1.37
2023-01-21T08:57:28.408Z,1.32
2023-01-21T08:59:56.302Z,1.21
2023-01-21T09:02:24.276Z,1.22
2023-01-21T09:04:52.289Z,1.24
2023-01-21T09:07:20.332Z,1.22
2023-01-21T09:09:48.822Z,1.14
2023-01-21T09:12:16.899Z,1.13
2023-01-21T09:14:44.824Z,1.09
2023-01-21T09:17:12.714Z,1.05
2023-01-21T09:19:40.720Z,1.03
2023-01-21T09:22:09.487Z,0.95
2023-01-21T09:24:37.530Z,0.95
2023-01-21T09:27:09.994Z,0.93
2023-01-21T09:29:37.907Z,0.86
2023-01-21T09:32:06.095Z,0.90
2023-01-21T09:34:35.853Z,0.91
2023-01-21T09:37:05.142Z,0.92
2023-01-21T09:39:33.076Z,0.92
2023-01-21T09:42:01.046Z,0.85
2023-01-21T09:44:44.826Z,0.87
2023-01-21T09:47:23.824Z,0.78
2023-01-21T09:50:00.446Z,0.82
2023-01-21T09:52:40.089Z,0.79
2023-01-21T09:55:27.708Z,0.77
2023-01-21T09:58:27.326Z,0.73
2023-01-21T10:01:22.905Z,0.71
2023-01-21T10:03:58.376Z,0.73
2023-01-21T10:06:35.118Z,0.65
2023-01-21T10:09:24.710Z,0.66
2023-01-21T10:12:03.147Z,0.64
2023-01-21T10:15:03.296Z,0.65
2023-01-21T10:17:55.786Z,0.63
2023-01-21T10:20:30.181Z,0.63
2023-01-21T10:23:11.631Z,0.63
2023-01-21T10:25:41.057Z,0.59
2023-01-21T10:28:21.247Z,0.64
2023-01-21T10:30:58.411Z,0.65
2023-01-21T10:33:31.268Z,0.69
2023-01-21T10:36:29.393Z,0.69
2023-01-21T10:39:14.852Z,0.66
2023-01-21T10:42:14.180Z,0.70
2023-01-21T10:45:13.404Z,0.73
2023-01-21T10:48:21.372Z,0.83
2023-01-21T10:51:03.302Z,0.80
2023-01-21T10:53:41.948Z,0.83
2023-01-21T10:56:30.075Z,0.84
2023-01-21T10:59:08.983Z,0.86
2023-01-21T11:01:51.450Z,0.90
2023-01-21T11:04:27.795Z,0.94
2023-01-21T11:07:06.008Z,0.93
2023-01-21T11:09:45.929Z,0.81
2023-01-21T11:12:20.338Z,0.81
2023-01-21T11:15:02.864Z,0.96
2023-01-21T11:17:36.294Z,0.97
2023-01-21T11:20:29.497Z,0.94
2023-01-21T11:22:57.530Z,1.10
2023-01-21T11:25:41.492Z,1.13
2023-01-21T11:28:42.324Z,1.11
2023-01-21T11:31:27.009Z,1.02
2023-01-21T11:34:03.796Z,0.92
2023-01-21T11:36:32.280Z,0.95
2023-01-21T11:39:09.086Z,0.91
2023-01-21T11:41:37.172Z,0.93
2023-01-21T11:44:22.555Z,0.85
2023-01-21T11:46:51.500Z,0.83
2023-01-21T11:49:27.371Z,0.83
2023-01-21T11:52:18.196Z,0.86
2023-01-21T11:54:47.593Z,0.82
2023-01-21T11:57:27.751Z,0.91
2023-01-21T12:00:07.455Z,0.84
2023-01-21T12:02:47.671Z,0.86
2023-01-21T12:05:30.090Z,0.95
2023-01-21T12:07:58.380Z,0.94
2023-01-21T12:10:32.304Z,0.97
2023-01-21T12:13:16.335Z,1.14
2023-01-21T12:16:31.277Z,1.15
2023-01-21T12:19:33.738Z,1.04
2023-01-21T12:22:48.679Z,0.94
2023-01-21T12:25:38.332Z,1.02
2023-01-21T12:28:40.317Z,0.98
2023-01-21T12:31:24.908Z,0.92
2023-01-21T12:34:19.150Z,0.90
2023-01-21T12:36:54.320Z,0.95
2023-01-21T12:39:36.621Z,0.97
2023-01-21T12:42:23.441Z,0.95
2023-01-21T12:45:04.741Z,0.88
2023-01-21T12:47:39.602Z,0.89
2023-01-21T12:50:53.015Z,0.94
2023-01-21T12:53:44.749Z,0.89
2023-01-21T12:56:40.437Z,1.01
2023-01-21T12:59:17.065Z,0.99
2023-01-21T13:02:14.978Z,1.05
2023-01-21T13:05:12.796Z,1.11
2023-01-21T13:07:53.407Z,1.09
2023-01-21T13:10:38.075Z,1.00
2023-01-21T13:13:35.218Z,0.97
2023-01-21T13:16:09.757Z,1.04
2023-01-21T13:18:50.449Z,0.99
2023-01-21T13:21:44.931Z,1.02
2023-01-21T13:24:22.816Z,0.95
2023-01-21T13:27:14.177Z,0.86
2023-01-21T13:29:52.905Z,0.87
2023-01-21T13:32:42.915Z,0.95
2023-01-21T13:35:37.319Z,0.93
2023-01-21T13:38:59.767Z,0.93
2023-01-21T13:41:59.437Z,0.90
2023-01-21T13:44:44.623Z,0.92
2023-01-21T13:47:56.136Z,0.93
2023-01-21T13:50:58.638Z,0.88
2023-01-21T13:54:03.644Z,0.89
2023-01-21T13:57:04.308Z,0.87
2023-01-21T13:59:47.359Z,0.84
2023-01-21T14:02:26.307Z,0.83
2023-01-21T14:05:17.104Z,0.87
2023-01-21T14:07:53.499Z,0.84
2023-01-21T14:10:49.485Z,0.78
2023-01-21T14:13:40.868Z,0.76
2023-01-21T14:16:41.956Z,0.74
2023-01-21T14:20:00.254Z,0.83
2023-01-21T14:23:11.286Z,0.80
2023-01-21T14:26:19.912Z,0.76
2023-01-21T14:29:19.921Z,0.80
2023-01-21T14:31:57.949Z,0.80
2023-01-21T14:34:42.744Z,0.79
2023-01-21T14:37:18.228Z,0.70
2023-01-21T14:39:57.550Z,0.68
2023-01-21T14:42:50.613Z,0.71
2023-01-21T14:45:22.519Z,0.64
2023-01-21T14:47:58.221Z,0.67
2023-01-21T14:51:08.678Z,0.67
2023-01-21T14:53:52.525Z,0.69
2023-01-21T14:56:34.412Z,0.57
2023-01-21T14:59:33.433Z,0.60
2023-01-21T15:02:19.368Z,0.61
2023-01-21T15:04:58.628Z,0.60
2023-01-21T15:07:39.633Z,0.60
2023-01-21T15:10:19.958Z,0.63
2023-01-21T15:12:55.556Z,0.58
2023-01-21T15:15:34.944Z,0.58
2023-01-21T15:18:26.320Z,0.59
2023-01-21T15:20:58.159Z,0.54
2023-01-21T15:23:31.967Z,0.57
2023-01-21T15:26:19.429Z,0.55
2023-01-21T15:28:49.408Z,0.57
2023-01-21T15:31:20.388Z,0.57
2023-01-21T15:33:55.108Z,0.58
2023-01-21T15:36:32.199Z,0.55
2023-01-21T15:39:32.242Z,0.56
2023-01-21T15:42:54.045Z,0.58
2023-01-21T15:45:59.049Z,0.56
2023-01-21T15:49:25.087Z,0.56
2023-01-21T15:52:13.413Z,0.54
2023-01-21T15:54:54.219Z,0.53
2023-01-21T15:57:28.404Z,0.53
2023-01-21T16:00:20.562Z,0.45
2023-01-21T16:03:38.382Z,0.54
2023-01-21T16:06:31.251Z,0.52
2023-01-21T16:09:08.023Z,0.48
2023-01-21T16:12:27.905Z,0.53
2023-01-21T16:15:29.206Z,0.54
2023-01-21T16:18:04.303Z,0.60
2023-01-21T16:20:33.527Z,0.59
2023-01-21T16:23:07.114Z,0.51
2023-01-21T16:25:46.103Z,0.52
2023-01-21T16:28:14.082Z,0.49
2023-01-21T16:30:54.567Z,0.49
2023-01-21T16:33:23.507Z,0.49
2023-01-21T16:35:57.782Z,0.52
2023-01-21T16:38:32.366Z,0.55
2023-01-21T16:41:06.380Z,0.59
2023-01-21T16:43:38.016Z,0.53
2023-01-21T16:46:14.130Z,0.50
2023-01-21T16:48:42.373Z,0.51
2023-01-21T16:51:23.654Z,0.54
2023-01-21T16:53:53.917Z,0.60
2023-01-21T16:56:28.864Z,0.57
2023-01-21T16:58:56.837Z,0.55
2023-01-21T17:01:30.510Z,0.55
2023-01-21T17:04:01.147Z,0.56
2023-01-21T17:06:31.699Z,0.57
2023-01-21T17:09:08.484Z,0.57
2023-01-21T17:11:46.075Z,0.58
2023-01-21T17:14:33.585Z,0.63
2023-01-21T17:17:06.760Z,0.64
2023-01-21T17:19:45.028Z,0.65
2023-01-21T17:22:25.721Z,0.64
2023-01-21T17:25:05.206Z,0.68
2023-01-21T17:27:42.741Z,0.64
2023-01-21T17:30:28.780Z,0.66
2023-01-21T17:33:01.215Z,0.73
2023-01-21T17:35:32.952Z,0.64
2023-01-21T17:38:07.776Z,0.66
2023-01-21T17:41:03.541Z,0.64
2023-01-21T17:43:33.513Z,0.62
2023-01-21T17:46:02.867Z,0.60
2023-01-21T17:48:45.820Z,0.60
2023-01-21T17:51:18.311Z,0.63
2023-01-21T17:54:02.045Z,0.63
2023-01-21T17:56:41.690Z,0.62
2023-01-21T17:59:34.032Z,0.66
2023-01-21T18:02:05.258Z,0.69
2023-01-21T18:04:33.106Z,0.65
2023-01-21T18:07:01.559Z,0.63
2023-01-21T18:09:34.663Z,0.65
2023-01-21T18:12:02.644Z,0.70
2023-01-21T18:14:32.982Z,0.72
2023-01-21T18:17:03.301Z,0.68
2023-01-21T18:19:36.505Z,0.72
2023-01-21T18:22:07.087Z,0.73
2023-01-21T18:24:35.493Z,0.70
2023-01-21T18:27:03.905Z,0.73
2023-01-21T18:29:31.923Z,0.74
2023-01-21T18:31:59.770Z,0.80
2023-01-21T18:34:28.947Z,0.74
2023-01-21T18:36:57.761Z,0.76
2023-01-21T18:39:25.814Z,0.75
2023-01-21T18:41:53.703Z,0.78
2023-01-21T18:44:21.670Z,0.78
2023-01-21T18:46:49.708Z,0.76
2023-01-21T18:49:20.618Z,0.78
2023-01-21T18:51:49.196Z,0.74
2023-01-21T18:54:18.136Z,0.72
2023-01-21T18:56:46.528Z,0.68
2023-01-21T18:59:18.635Z,0.71
2023-01-21T19:01:46.640Z,0.71
2023-01-21T19:04:18.843Z,0.73
2023-01-21T19:06:47.844Z,0.67
2023-01-21T19:09:25.110Z,0.68
2023-01-21T19:11:53.036Z,0.69
2023-01-21T19:14:21.557Z,0.68
2023-01-21T19:16:49.500Z,0.68
2023-01-21T19:19:20.581Z,0.70
2023-01-21T19:21:48.696Z,0.67
2023-01-21T19:24:16.626Z,0.66
2023-01-21T19:26:44.513Z,0.74
2023-01-21T19:29:21.476Z,0.74
2023-01-21T19:31:52.726Z,0.69
2023-01-21T19:34:24.924Z,0.68
2023-01-21T19:36:53.510Z,0.71
2023-01-21T19:39:23.785Z,0.76
2023-01-21T19:42:07.110Z,0.73
2023-01-21T19:44:35.815Z,0.66
2023-01-21T19:47:04.317Z,0.70
2023-01-21T19:49:32.390Z,0.78
2023-01-21T19:52:00.363Z,0.75
2023-01-21T19:54:28.349Z,0.78
2023-01-21T19:56:57.157Z,0.78
2023-01-21T19:59:25.031Z,0.79
2023-01-21T20:01:53.137Z,0.78
2023-01-21T20:04:21.159Z,0.82
2023-01-21T20:06:49.132Z,0.75
2023-01-21T20:09:18.957Z,0.72
2023-01-21T20:11:46.901Z,0.77
2023-01-21T20:14:14.838Z,0.75
2023-01-21T20:16:53.214Z,0.67
2023-01-21T20:19:22.707Z,0.75
2023-01-21T20:22:01.128Z,0.79
2023-01-21T20:24:33.397Z,0.75
2023-01-21T20:27:03.059Z,0.70
2023-01-21T20:29:30.914Z,0.74
2023-01-21T20:31:58.954Z,0.74
2023-01-21T20:34:28.383Z,0.77
2023-01-21T20:36:56.624Z,0.77
2023-01-21T20:39:24.702Z,0.75
2023-01-21T20:41:52.584Z,0.82
2023-01-21T20:44:20.542Z,0.75
2023-01-21T20:46:48.592Z,0.69
2023-01-21T20:49:16.761Z,0.74
2023-01-21T20:51:44.637Z,0.71
2023-01-21T20:54:12.771Z,0.77
2023-01-21T20:56:40.802Z,0.84
2023-01-21T20:59:09.682Z,0.85
2023-01-21T21:01:39.494Z,0.92
2023-01-21T21:04:07.562Z,0.93
2023-01-21T21:06:35.758Z,0.76
2023-01-21T21:09:03.617Z,0.75
2023-01-21T21:11:31.558Z,0.75
2023-01-21T21:14:01.786Z,0.75
2023-01-21T21:16:31.803Z,0.79
2023-01-21T21:19:03.697Z,0.89
2023-01-21T21:21:31.733Z,0.91
2023-01-21T21:23:59.578Z,0.89
2023-01-21T21:26:33.144Z,0.87
2023-01-21T21:29:01.146Z,0.75
2023-01-21T21:31:32.739Z,0.70
2023-01-21T21:34:00.701Z,0.79
2023-01-21T21:36:28.703Z,0.81
2023-01-21T21:38:56.756Z,0.78
2023-01-21T21:41:45.094Z,0.77
2023-01-21T21:44:13.588Z,0.82
2023-01-21T21:47:00.762Z,0.85
2023-01-21T21:49:29.280Z,0.89
2023-01-21T21:52:00.036Z,0.90
2023-01-21T21:54:28.026Z,0.89
2023-01-21T21:56:56.138Z,0.85
2023-01-21T21:59:24.129Z,0.81
2023-01-21T22:01:52.041Z,0.82
2023-01-21T22:04:21.317Z,0.82
2023-01-21T22:06:49.346Z,0.72
2023-01-21T22:09:17.294Z,0.81
2023-01-21T22:11:45.204Z,0.79
2023-01-21T22:14:13.778Z,0.79
2023-01-21T22:16:41.786Z,0.82
2023-01-21T22:19:09.756Z,0.84
2023-01-21T22:21:37.739Z,0.91
2023-01-21T22:24:09.098Z,0.78
2023-01-21T22:26:38.480Z,0.79
2023-01-21T22:29:06.570Z,0.82
2023-01-21T22:31:34.697Z,0.80
2023-01-21T22:34:03.066Z,0.86
2023-01-21T22:36:31.786Z,0.87
2023-01-21T22:39:00.469Z,0.86
2023-01-21T22:41:28.618Z,0.86
2023-01-21T22:43:57.021Z,0.86
2023-01-21T22:46:30.046Z,0.95
2023-01-21T22:48:58.852Z,0.89
2023-01-21T22:51:27.303Z,0.88
2023-01-21T22:53:56.054Z,0.82
2023-01-21T22:56:44.962Z,0.87
2023-01-21T22:59:14.217Z,0.84
2023-01-21T23:01:42.589Z,0.79
2023-01-21T23:04:10.896Z,0.80
2023-01-21T23:06:39.167Z,0.82
2023-01-21T23:09:09.605Z,0.83
2023-01-21T23:11:40.135Z,0.91
2023-01-21T23:14:09.806Z,0.93
2023-01-21T23:16:38.382Z,0.86
2023-01-21T23:19:06.460Z,0.85
2023-01-21T23:21:35.902Z,0.90
2023-01-21T23:24:06.057Z,0.84
2023-01-21T23:26:34.045Z,0.85
2023-01-21T23:29:02.020Z,0.84
2023-01-21T23:31:29.981Z,0.85
2023-01-21T23:33:58.730Z,0.84
2023-01-21T23:36:26.630Z,0.78
2023-01-21T23:38:54.501Z,0.87
2023-01-21T23:41:22.546Z,0.83
2023-01-21T23:43:50.533Z,0.95
2023-01-21T23:46:19.798Z,0.95
2023-01-21T23:48:48.196Z,0.93
2023-01-21T23:51:18.596Z,0.94
2023-01-21T23:53:50.945Z,0.89
2023-01-21T23:56:25.327Z,0.93
2023-01-21T23:58:54.416Z,0.94
